Burtonwood, United Kingdom
Current Conditions -  °F | °C
As of 4:20 AM on Wednesday 26 Nov 2014 (Local Time) from EGGP Reporting Station
Light Rain Light Rain  
Wind Chill: 37°   Ceiling: Unl
Heat Index: 43°   Visibility: 6mi
Dew Point: 43°   Wind: 10mph
Humidity: 100%   Direction: 40°NE
Pressure: 29.97"   Gusts: NA
Location:  53.43°N, 2.66°W
Report Text: EGGP 260420Z 04009KT 9999 -RA FEW026 06/06 Q1015
Loading
Personal Weather Stations






























Interactive Weather Map New forecast layout! Learn more

10-Day Weather Forecast

Advertisements
Track Severe Weather on mobile